Terminal Aerodrome Forecast
Issued by NWS

Current Version | Previous Version | Text Only | Print | Product List | Glossary On
Versions: 1 2 3 4 5 6 7 8 9 10 11 12 13 14
000
FTUS42 KTAE 270523
TAFECP
TAF
KECP 270523Z 2706/2806 34003KT P6SM SCT002 SCT030
     FM271000 06011KT 6SM -SHRA OVC025
     FM271500 08015G22KT 3SM SHRA VCTS OVC015CB=

USA.gov is the U.S. government's official web portal to all federal, state and local government web resources and services.